createdAt,value
2019-03-25T00:00:14.364Z,0.00
2019-03-25T00:01:14.277Z,0.00
2019-03-25T00:02:14.228Z,0.00
2019-03-25T00:03:14.225Z,0.00
2019-03-25T00:04:14.201Z,0.00
2019-03-25T00:05:14.220Z,0.00
2019-03-25T00:06:14.232Z,0.00
2019-03-25T00:07:14.165Z,0.00
2019-03-25T00:08:14.156Z,0.00
2019-03-25T00:09:14.151Z,0.00
2019-03-25T00:10:14.142Z,0.00
2019-03-25T00:11:14.143Z,0.00
2019-03-25T00:12:14.116Z,0.00
2019-03-25T00:13:14.096Z,0.00
2019-03-25T00:14:14.091Z,0.00
2019-03-25T00:15:14.082Z,0.00
2019-03-25T00:16:14.099Z,0.00
2019-03-25T00:17:14.058Z,0.00
2019-03-25T00:18:14.045Z,0.00
2019-03-25T00:19:14.040Z,0.00
2019-03-25T00:20:14.017Z,0.00
2019-03-25T00:21:14.042Z,0.00
2019-03-25T00:22:13.998Z,0.00
2019-03-25T00:23:13.983Z,0.00
2019-03-25T00:24:13.971Z,0.00
2019-03-25T00:25:13.965Z,0.00
2019-03-25T00:26:14.018Z,0.00
2019-03-25T00:27:13.951Z,0.00
2019-03-25T00:28:14.010Z,0.00
2019-03-25T00:29:13.920Z,0.00
2019-03-25T00:30:13.909Z,0.00
2019-03-25T00:31:13.915Z,0.00
2019-03-25T00:32:13.883Z,0.00
2019-03-25T00:33:13.885Z,0.00
2019-03-25T00:34:13.856Z,0.00
2019-03-25T00:35:13.845Z,0.00
2019-03-25T00:36:13.879Z,0.00
2019-03-25T00:37:13.838Z,0.00
2019-03-25T00:38:13.822Z,0.00
2019-03-25T00:39:13.800Z,0.00
2019-03-25T00:40:13.795Z,0.00
2019-03-25T00:41:13.810Z,0.00
2019-03-25T00:42:13.779Z,0.00
2019-03-25T00:43:13.773Z,0.00
2019-03-25T00:44:13.744Z,0.00
2019-03-25T00:45:13.738Z,0.00
2019-03-25T00:46:13.756Z,0.00
2019-03-25T00:47:13.713Z,0.00
2019-03-25T00:48:13.698Z,0.00
2019-03-25T00:49:13.695Z,0.00
2019-03-25T00:50:13.678Z,0.00
2019-03-25T00:51:13.666Z,0.00
2019-03-25T00:52:13.686Z,0.00
2019-03-25T00:53:13.645Z,0.00
2019-03-25T00:54:13.651Z,0.00
2019-03-25T00:55:13.623Z,0.00
2019-03-25T00:56:13.609Z,0.00
2019-03-25T00:57:13.627Z,0.00
2019-03-25T00:58:13.593Z,0.00
2019-03-25T00:59:13.574Z,0.00
2019-03-25T01:00:13.575Z,0.00
2019-03-25T01:01:13.552Z,0.00
2019-03-25T01:02:13.570Z,0.00
2019-03-25T01:03:13.539Z,0.00
2019-03-25T01:04:13.517Z,0.00
2019-03-25T01:05:13.511Z,0.00
2019-03-25T01:06:13.493Z,0.00
2019-03-25T01:07:13.520Z,0.00
2019-03-25T01:08:13.475Z,0.00
2019-03-25T01:09:13.461Z,0.00
2019-03-25T01:10:13.448Z,0.00
2019-03-25T01:11:13.445Z,0.00
2019-03-25T01:12:13.463Z,0.00
2019-03-25T01:13:13.418Z,0.00
2019-03-25T01:14:13.404Z,0.00
2019-03-25T01:15:13.392Z,0.00
2019-03-25T01:16:13.387Z,0.00
2019-03-25T01:17:13.410Z,0.00
2019-03-25T01:18:17.110Z,0.00
2019-03-25T01:19:13.347Z,0.00
2019-03-25T01:20:13.376Z,0.00
2019-03-25T01:21:13.325Z,0.00
2019-03-25T01:22:13.338Z,0.00
2019-03-25T01:23:13.299Z,0.00
2019-03-25T01:24:13.290Z,0.00
2019-03-25T01:25:13.279Z,0.00
2019-03-25T01:26:13.270Z,0.00
2019-03-25T01:27:13.282Z,0.00
2019-03-25T01:28:13.271Z,0.00
2019-03-25T01:29:13.236Z,0.00
2019-03-25T01:30:13.219Z,0.00
2019-03-25T01:31:13.211Z,0.00
2019-03-25T01:32:13.197Z,0.00
2019-03-25T01:33:13.216Z,0.00
2019-03-25T01:34:13.175Z,0.00
2019-03-25T01:35:13.164Z,0.00
2019-03-25T01:36:13.151Z,0.00
2019-03-25T01:37:13.177Z,0.00
2019-03-25T01:38:13.150Z,0.00
2019-03-25T01:39:13.122Z,0.00
2019-03-25T01:40:13.104Z,0.00
2019-03-25T01:41:13.100Z,0.00
2019-03-25T01:42:13.082Z,0.00
2019-03-25T01:43:13.101Z,0.00
2019-03-25T01:44:13.058Z,0.00
2019-03-25T01:45:13.048Z,0.00
2019-03-25T01:46:13.037Z,0.00
2019-03-25T01:47:13.027Z,0.00
2019-03-25T01:48:13.037Z,0.00
2019-03-25T01:49:13.002Z,0.00
2019-03-25T01:50:12.991Z,0.00
2019-03-25T01:51:12.979Z,0.00
2019-03-25T01:52:12.966Z,0.00
2019-03-25T01:53:12.984Z,0.00
2019-03-25T01:54:12.945Z,0.00
2019-03-25T01:55:13.854Z,0.00
2019-03-25T01:56:12.926Z,0.00
2019-03-25T01:57:12.915Z,0.00
2019-03-25T01:58:12.957Z,0.00
2019-03-25T01:59:12.886Z,0.00
2019-03-25T02:00:12.907Z,0.00
2019-03-25T02:01:12.870Z,0.00
2019-03-25T02:02:12.852Z,0.00
2019-03-25T02:03:12.841Z,0.00
2019-03-25T02:04:12.864Z,0.00
2019-03-25T02:05:12.834Z,0.00
2019-03-25T02:06:12.807Z,0.00
2019-03-25T02:07:12.800Z,0.00
2019-03-25T02:08:12.787Z,0.00
2019-03-25T02:09:12.797Z,0.00
2019-03-25T02:10:12.768Z,0.00
2019-03-25T02:11:12.749Z,0.00
2019-03-25T02:12:12.739Z,0.00
2019-03-25T02:13:12.746Z,0.00
2019-03-25T02:14:12.749Z,0.00
2019-03-25T02:15:12.715Z,0.00
2019-03-25T02:16:12.695Z,0.00
2019-03-25T02:17:12.684Z,0.00
2019-03-25T02:18:12.679Z,0.00
2019-03-25T02:19:12.684Z,0.00
2019-03-25T02:20:12.655Z,0.00
2019-03-25T02:21:12.637Z,0.00
2019-03-25T02:22:12.642Z,0.00
2019-03-25T02:23:12.681Z,0.00
2019-03-25T02:24:12.696Z,0.00
2019-03-25T02:25:12.595Z,0.00
2019-03-25T02:26:12.579Z,0.00
2019-03-25T02:27:12.568Z,0.00
2019-03-25T02:28:12.565Z,0.00
2019-03-25T02:29:12.590Z,0.00
2019-03-25T02:30:12.538Z,0.00
2019-03-25T02:31:12.530Z,0.00
2019-03-25T02:32:12.530Z,0.00
2019-03-25T02:33:12.510Z,0.00
2019-03-25T02:34:12.494Z,0.00
2019-03-25T02:35:12.500Z,0.00
2019-03-25T02:36:12.466Z,0.00
2019-03-25T02:37:12.463Z,0.00
2019-03-25T02:38:12.452Z,0.00
2019-03-25T02:39:12.432Z,0.00
2019-03-25T02:40:12.480Z,0.00
2019-03-25T02:41:12.417Z,0.00
2019-03-25T02:42:12.406Z,0.00
2019-03-25T02:43:12.399Z,0.00
2019-03-25T02:44:12.380Z,0.00
2019-03-25T02:45:12.396Z,0.00
2019-03-25T02:46:12.361Z,0.00
2019-03-25T02:47:12.344Z,0.00
2019-03-25T02:48:12.331Z,0.00
2019-03-25T02:49:12.328Z,0.00
2019-03-25T02:50:12.347Z,0.00
2019-03-25T02:51:12.327Z,0.00
2019-03-25T02:52:12.296Z,0.00
2019-03-25T02:53:12.279Z,0.00
2019-03-25T02:54:12.278Z,0.00
2019-03-25T02:55:12.253Z,0.00
2019-03-25T02:56:12.275Z,0.00
2019-03-25T02:57:12.234Z,0.00
2019-03-25T02:58:12.233Z,0.00
2019-03-25T02:59:12.208Z,0.00
2019-03-25T03:00:12.207Z,0.00
2019-03-25T03:01:12.216Z,0.00
2019-03-25T03:02:12.195Z,0.00
2019-03-25T03:03:12.237Z,0.00
2019-03-25T03:04:12.153Z,0.00
2019-03-25T03:05:12.136Z,0.00
2019-03-25T03:06:12.163Z,0.00
2019-03-25T03:07:12.113Z,0.00
2019-03-25T03:08:12.107Z,0.00
2019-03-25T03:09:12.094Z,0.00
2019-03-25T03:10:12.086Z,0.00
2019-03-25T03:11:12.114Z,0.00
2019-03-25T03:12:12.096Z,0.00
2019-03-25T03:13:12.046Z,0.00
2019-03-25T03:14:15.133Z,0.00
2019-03-25T03:15:12.020Z,0.00
2019-03-25T03:16:12.033Z,0.00
2019-03-25T03:17:12.027Z,0.00
2019-03-25T03:18:11.993Z,0.00
2019-03-25T03:19:11.980Z,0.00
2019-03-25T03:20:11.988Z,0.00
2019-03-25T03:21:11.981Z,0.00
2019-03-25T03:22:11.949Z,0.00
2019-03-25T03:23:11.930Z,0.00
2019-03-25T03:24:11.918Z,0.00
2019-03-25T03:25:11.909Z,0.00
2019-03-25T03:26:11.928Z,0.00
2019-03-25T03:27:11.888Z,0.00
2019-03-25T03:28:11.880Z,0.00
2019-03-25T03:29:11.873Z,0.00
2019-03-25T03:30:11.860Z,0.00
2019-03-25T03:31:11.862Z,0.00
2019-03-25T03:32:11.861Z,0.00
2019-03-25T03:33:11.833Z,0.00
2019-03-25T03:34:11.815Z,0.00
2019-03-25T03:35:11.798Z,0.00
2019-03-25T03:36:11.793Z,0.00
2019-03-25T03:37:11.804Z,0.00
2019-03-25T03:38:11.763Z,0.00
2019-03-25T03:39:11.757Z,0.00
2019-03-25T03:40:11.738Z,0.00
2019-03-25T03:41:11.732Z,0.00
2019-03-25T03:42:11.748Z,0.00
2019-03-25T03:43:11.708Z,0.00
2019-03-25T03:44:11.721Z,0.00
2019-03-25T03:45:11.684Z,0.00
2019-03-25T03:46:11.672Z,0.00
2019-03-25T03:47:11.699Z,0.00
2019-03-25T03:48:11.647Z,0.00
2019-03-25T03:49:11.638Z,0.00
2019-03-25T03:50:13.969Z,0.00
2019-03-25T03:51:11.617Z,0.00
2019-03-25T03:52:11.618Z,0.00
2019-03-25T03:53:11.617Z,0.00
2019-03-25T03:54:11.584Z,0.00
2019-03-25T03:55:11.577Z,0.00
2019-03-25T03:56:13.895Z,0.00
2019-03-25T03:57:11.547Z,0.00
2019-03-25T03:58:11.559Z,0.00
2019-03-25T03:59:11.550Z,0.00
2019-03-25T04:00:11.514Z,0.00
2019-03-25T04:01:11.505Z,0.00
2019-03-25T04:02:11.490Z,0.00
2019-03-25T04:03:11.483Z,0.00
2019-03-25T04:04:11.498Z,0.00
2019-03-25T04:05:11.458Z,0.00
2019-03-25T04:06:11.461Z,0.00
2019-03-25T04:07:11.446Z,4.00
2019-03-25T04:08:11.464Z,4.00
2019-03-25T04:09:11.440Z,4.00
2019-03-25T04:10:11.410Z,4.00
2019-03-25T04:11:11.394Z,4.00
2019-03-25T04:12:11.381Z,4.00
2019-03-25T04:13:11.380Z,4.00
2019-03-25T04:14:11.399Z,8.00
2019-03-25T04:15:11.416Z,8.00
2019-03-25T04:16:11.349Z,8.00
2019-03-25T04:17:11.372Z,8.00
2019-03-25T04:18:11.322Z,0.00
2019-03-25T04:19:11.333Z,0.00
2019-03-25T04:20:11.298Z,0.00
2019-03-25T04:21:11.285Z,0.00
2019-03-25T04:22:11.285Z,0.00
2019-03-25T04:23:11.273Z,0.00
2019-03-25T04:24:11.305Z,0.00
2019-03-25T04:25:11.243Z,0.00
2019-03-25T04:26:11.231Z,0.00
2019-03-25T04:27:11.225Z,0.00
2019-03-25T04:28:11.254Z,0.00
2019-03-25T04:29:11.232Z,0.00
2019-03-25T04:30:11.219Z,0.00
2019-03-25T04:31:11.184Z,0.00
2019-03-25T04:32:11.167Z,0.00
2019-03-25T04:33:11.153Z,0.00
2019-03-25T04:34:11.170Z,0.00
2019-03-25T04:35:11.139Z,0.00
2019-03-25T04:36:11.121Z,0.00
2019-03-25T04:37:11.114Z,4.00
2019-03-25T04:38:11.101Z,4.00
2019-03-25T04:39:11.116Z,4.00
2019-03-25T04:40:11.077Z,4.00
2019-03-25T04:41:11.067Z,4.00
2019-03-25T04:42:11.067Z,0.00
2019-03-25T04:43:11.052Z,0.00
2019-03-25T04:44:11.057Z,0.00
2019-03-25T04:45:11.052Z,0.00
2019-03-25T04:46:11.012Z,0.00
2019-03-25T04:47:11.000Z,0.00
2019-03-25T04:48:11.012Z,0.00
2019-03-25T04:49:10.980Z,0.00
2019-03-25T04:50:10.992Z,0.00
2019-03-25T04:51:10.954Z,0.00
2019-03-25T04:52:10.944Z,0.00
2019-03-25T04:53:10.943Z,0.00
2019-03-25T04:54:10.927Z,0.00
2019-03-25T04:55:10.946Z,0.00
2019-03-25T04:56:10.913Z,0.00
2019-03-25T04:57:10.899Z,0.00
2019-03-25T04:58:10.901Z,0.00
2019-03-25T04:59:10.872Z,0.00
2019-03-25T05:00:10.886Z,0.00
2019-03-25T05:01:10.857Z,0.00
2019-03-25T05:02:10.835Z,0.00
2019-03-25T05:03:10.830Z,0.00
2019-03-25T05:04:10.815Z,0.00
2019-03-25T05:05:10.828Z,0.00
2019-03-25T05:06:10.800Z,4.00
2019-03-25T05:07:10.804Z,4.00
2019-03-25T05:08:10.779Z,0.00
2019-03-25T05:09:10.768Z,0.00
2019-03-25T05:10:10.779Z,0.00
2019-03-25T05:11:10.739Z,4.00
2019-03-25T05:12:10.731Z,4.00
2019-03-25T05:13:10.717Z,0.00
2019-03-25T05:14:10.707Z,4.00
2019-03-25T05:15:10.699Z,4.00
2019-03-25T05:16:10.717Z,4.00
2019-03-25T05:17:10.674Z,4.00
2019-03-25T05:18:10.662Z,4.00
2019-03-25T05:19:10.668Z,8.00
2019-03-25T05:20:10.645Z,8.00
2019-03-25T05:21:10.659Z,8.00
2019-03-25T05:22:11.187Z,12.00
2019-03-25T05:23:10.621Z,8.00
2019-03-25T05:24:10.602Z,8.00
2019-03-25T05:25:10.587Z,8.00
2019-03-25T05:26:10.598Z,12.00
2019-03-25T05:27:10.565Z,12.00
2019-03-25T05:28:10.559Z,12.00
2019-03-25T05:29:10.556Z,16.00
2019-03-25T05:30:10.536Z,16.00
2019-03-25T05:31:10.545Z,16.00
2019-03-25T05:32:10.511Z,20.00
2019-03-25T05:33:10.500Z,20.00
2019-03-25T05:34:10.488Z,20.00
2019-03-25T05:35:10.537Z,24.00
2019-03-25T05:36:10.492Z,20.00
2019-03-25T05:37:10.461Z,24.00
2019-03-25T05:38:10.447Z,24.00
2019-03-25T05:39:10.439Z,24.00
2019-03-25T05:40:10.425Z,28.00
2019-03-25T05:41:10.441Z,28.00
2019-03-25T05:42:10.433Z,32.00
2019-03-25T05:43:10.395Z,32.00
2019-03-25T05:44:10.385Z,32.00
2019-03-25T05:45:10.369Z,32.00
2019-03-25T05:46:10.357Z,28.00
2019-03-25T05:47:10.375Z,24.00
2019-03-25T05:48:10.342Z,16.00
2019-03-25T05:49:10.327Z,8.00
2019-03-25T05:50:10.328Z,8.00
2019-03-25T05:51:10.308Z,4.00
2019-03-25T05:52:10.335Z,0.00
2019-03-25T05:53:10.282Z,0.00
2019-03-25T05:54:10.270Z,4.00
2019-03-25T05:55:10.261Z,4.00
2019-03-25T05:56:10.249Z,8.00
2019-03-25T05:57:10.262Z,16.00
2019-03-25T05:58:10.231Z,20.00
2019-03-25T05:59:10.218Z,20.00
2019-03-25T06:00:10.220Z,24.00
2019-03-25T06:01:10.200Z,24.00
2019-03-25T06:02:10.213Z,28.00
2019-03-25T06:03:10.181Z,32.00
2019-03-25T06:04:10.167Z,32.00
2019-03-25T06:05:10.154Z,36.00
2019-03-25T06:06:10.143Z,36.00
2019-03-25T06:07:10.159Z,36.00
2019-03-25T06:08:10.122Z,40.00
2019-03-25T06:09:10.115Z,52.00
2019-03-25T06:10:10.124Z,56.00
2019-03-25T06:11:10.090Z,64.00
2019-03-25T06:12:10.162Z,68.00
2019-03-25T06:13:10.096Z,68.00
2019-03-25T06:14:10.063Z,76.00
2019-03-25T06:15:10.114Z,84.00
2019-03-25T06:16:10.037Z,84.00
2019-03-25T06:17:10.024Z,88.00
2019-03-25T06:18:10.124Z,96.00
2019-03-25T06:19:10.005Z,96.00
2019-03-25T06:20:09.990Z,100.00
2019-03-25T06:21:09.981Z,104.00
2019-03-25T06:22:09.969Z,108.00
2019-03-25T06:23:09.989Z,108.00
2019-03-25T06:24:09.946Z,116.00
2019-03-25T06:25:09.984Z,120.00
2019-03-25T06:26:09.970Z,112.00
2019-03-25T06:27:14.365Z,112.00
2019-03-25T06:28:09.950Z,116.00
2019-03-25T06:29:09.892Z,108.00
2019-03-25T06:30:09.890Z,112.00
2019-03-25T06:31:09.877Z,124.00
2019-03-25T06:32:09.870Z,132.00
2019-03-25T06:33:12.717Z,112.00
2019-03-25T06:34:09.841Z,108.00
2019-03-25T06:35:09.832Z,84.00
2019-03-25T06:36:09.816Z,96.00
2019-03-25T06:37:09.803Z,96.00
2019-03-25T06:38:09.825Z,100.00
2019-03-25T06:39:09.785Z,80.00
2019-03-25T06:40:09.790Z,88.00
2019-03-25T06:41:09.761Z,100.00
2019-03-25T06:42:09.750Z,108.00
2019-03-25T06:43:09.742Z,104.00
2019-03-25T06:44:09.755Z,104.00
2019-03-25T06:45:09.723Z,108.00
2019-03-25T06:46:09.788Z,76.00
2019-03-25T06:47:09.712Z,56.00
2019-03-25T06:48:09.695Z,116.00
2019-03-25T06:49:09.699Z,116.00
2019-03-25T06:50:09.676Z,112.00
2019-03-25T06:51:09.651Z,128.00
2019-03-25T06:52:09.650Z,132.00
2019-03-25T06:53:09.631Z,116.00
2019-03-25T06:54:09.660Z,108.00
2019-03-25T06:55:09.619Z,100.00
2019-03-25T06:56:09.595Z,116.00
2019-03-25T06:57:09.585Z,92.00
2019-03-25T06:58:09.577Z,76.00
2019-03-25T06:59:09.586Z,68.00
2019-03-25T07:00:09.561Z,60.00
2019-03-25T07:01:09.539Z,56.00
2019-03-25T07:02:09.527Z,52.00
2019-03-25T07:03:09.516Z,52.00
2019-03-25T07:04:09.535Z,48.00
2019-03-25T07:05:09.707Z,48.00
2019-03-25T07:06:09.488Z,36.00
2019-03-25T07:07:09.472Z,32.00
2019-03-25T07:08:09.460Z,28.00
2019-03-25T07:09:09.449Z,28.00
2019-03-25T07:10:09.463Z,32.00
2019-03-25T07:11:09.436Z,32.00
2019-03-25T07:12:09.415Z,40.00
2019-03-25T07:13:09.416Z,64.00
2019-03-25T07:14:09.398Z,92.00
2019-03-25T07:15:09.412Z,96.00
2019-03-25T07:16:09.376Z,80.00
2019-03-25T07:17:09.361Z,96.00
2019-03-25T07:18:09.356Z,112.00
2019-03-25T07:19:09.342Z,108.00
2019-03-25T07:20:09.330Z,140.00
2019-03-25T07:21:09.343Z,196.00
2019-03-25T07:22:09.303Z,172.00
2019-03-25T07:23:09.307Z,192.00
2019-03-25T07:24:09.280Z,284.00
2019-03-25T07:25:09.311Z,348.00
2019-03-25T07:26:09.279Z,328.00
2019-03-25T07:27:09.250Z,380.00
2019-03-25T07:28:09.238Z,520.00
2019-03-25T07:29:09.224Z,392.00
2019-03-25T07:30:11.298Z,248.00
2019-03-25T07:31:09.233Z,208.00
2019-03-25T07:32:09.224Z,208.00
2019-03-25T07:33:09.184Z,248.00
2019-03-25T07:34:09.172Z,276.00
2019-03-25T07:35:09.159Z,160.00
2019-03-25T07:36:09.168Z,148.00
2019-03-25T07:37:09.138Z,192.00
2019-03-25T07:38:09.123Z,304.00
2019-03-25T07:39:09.120Z,372.00
2019-03-25T07:40:09.109Z,256.00
2019-03-25T07:41:09.134Z,112.00
2019-03-25T07:42:09.077Z,100.00
2019-03-25T07:43:09.069Z,68.00
2019-03-25T07:44:09.054Z,52.00
2019-03-25T07:45:09.046Z,52.00
2019-03-25T07:46:09.063Z,56.00
2019-03-25T07:47:09.024Z,64.00
2019-03-25T07:48:09.016Z,100.00
2019-03-25T07:49:09.002Z,132.00
2019-03-25T07:50:08.988Z,116.00
2019-03-25T07:51:09.020Z,76.00
2019-03-25T07:52:08.971Z,44.00
2019-03-25T07:53:08.956Z,32.00
2019-03-25T07:54:08.950Z,32.00
2019-03-25T07:55:08.940Z,36.00
2019-03-25T07:56:08.923Z,32.00
2019-03-25T07:57:08.935Z,40.00
2019-03-25T07:58:08.908Z,52.00
2019-03-25T07:59:08.904Z,68.00
2019-03-25T08:00:13.439Z,64.00
2019-03-25T08:01:09.904Z,68.00
2019-03-25T08:02:08.895Z,72.00
2019-03-25T08:03:08.847Z,64.00
2019-03-25T08:04:08.838Z,40.00
2019-03-25T08:05:08.872Z,28.00
2019-03-25T08:06:08.816Z,32.00
2019-03-25T08:07:08.831Z,40.00
2019-03-25T08:08:08.800Z,48.00
2019-03-25T08:09:08.787Z,64.00
2019-03-25T08:10:08.780Z,68.00
2019-03-25T08:11:08.762Z,60.00
2019-03-25T08:12:08.782Z,44.00
2019-03-25T08:13:08.768Z,44.00
2019-03-25T08:14:08.825Z,60.00
2019-03-25T08:15:08.721Z,88.00
2019-03-25T08:16:08.707Z,120.00
2019-03-25T08:17:08.716Z,144.00
2019-03-25T08:18:08.713Z,188.00
2019-03-25T08:19:08.682Z,220.00
2019-03-25T08:20:08.665Z,248.00
2019-03-25T08:21:08.649Z,284.00
2019-03-25T08:22:08.647Z,336.00
2019-03-25T08:23:08.652Z,392.00
2019-03-25T08:24:08.619Z,404.00
2019-03-25T08:25:08.613Z,420.00
2019-03-25T08:26:08.608Z,448.00
2019-03-25T08:27:08.600Z,552.00
2019-03-25T08:28:08.611Z,660.00
2019-03-25T08:29:08.562Z,516.00
2019-03-25T08:30:08.552Z,444.00
2019-03-25T08:31:08.544Z,436.00
2019-03-25T08:32:08.529Z,616.00
2019-03-25T08:33:08.542Z,428.00
2019-03-25T08:34:08.516Z,364.00
2019-03-25T08:35:08.498Z,352.00
2019-03-25T08:36:08.486Z,340.00
2019-03-25T08:37:08.474Z,412.00
2019-03-25T08:38:08.507Z,568.00
2019-03-25T08:39:08.514Z,496.00
2019-03-25T08:40:08.449Z,408.00
2019-03-25T08:41:08.445Z,420.00
2019-03-25T08:42:08.482Z,580.00
2019-03-25T08:43:08.412Z,640.00
2019-03-25T08:44:08.434Z,544.00
2019-03-25T08:45:08.390Z,636.00
2019-03-25T08:46:08.380Z,664.00
2019-03-25T08:47:08.369Z,600.00
2019-03-25T08:48:08.389Z,656.00
2019-03-25T08:49:08.351Z,520.00
2019-03-25T08:50:08.341Z,472.00
2019-03-25T08:51:08.321Z,468.00
2019-03-25T08:52:08.311Z,372.00
2019-03-25T08:53:08.331Z,496.00
2019-03-25T08:54:08.300Z,432.00
2019-03-25T08:55:08.282Z,396.00
2019-03-25T08:56:08.271Z,408.00
2019-03-25T08:57:08.263Z,396.00
2019-03-25T08:58:12.296Z,440.00
2019-03-25T08:59:08.267Z,452.00
2019-03-25T09:00:08.228Z,488.00
2019-03-25T09:01:08.215Z,400.00
2019-03-25T09:02:08.220Z,496.00
2019-03-25T09:03:08.210Z,608.00
2019-03-25T09:04:08.206Z,484.00
2019-03-25T09:05:08.172Z,584.00
2019-03-25T09:06:08.171Z,740.00
2019-03-25T09:07:08.149Z,720.00
2019-03-25T09:08:08.140Z,768.00
2019-03-25T09:09:08.146Z,816.00
2019-03-25T09:10:08.117Z,948.00
2019-03-25T09:11:08.111Z,784.00
2019-03-25T09:12:08.101Z,888.00
2019-03-25T09:13:08.084Z,772.00
2019-03-25T09:14:08.101Z,620.00
2019-03-25T09:15:08.064Z,528.00
2019-03-25T09:16:08.047Z,788.00
2019-03-25T09:17:08.053Z,1020.00
2019-03-25T09:18:08.027Z,868.00
2019-03-25T09:19:08.014Z,696.00
2019-03-25T09:20:08.027Z,492.00
2019-03-25T09:21:07.999Z,420.00
2019-03-25T09:22:07.998Z,636.00
2019-03-25T09:23:07.981Z,1188.00
2019-03-25T09:24:07.986Z,924.00
2019-03-25T09:25:07.972Z,768.00
2019-03-25T09:26:07.943Z,760.00
2019-03-25T09:27:07.930Z,556.00
2019-03-25T09:28:07.926Z,444.00
2019-03-25T09:29:07.928Z,364.00
2019-03-25T09:30:07.886Z,180.00
2019-03-25T09:31:07.875Z,92.00
2019-03-25T09:32:07.871Z,64.00
2019-03-25T09:33:07.855Z,40.00
2019-03-25T09:34:07.861Z,32.00
2019-03-25T09:35:07.868Z,28.00
2019-03-25T09:36:07.817Z,28.00
2019-03-25T09:37:07.818Z,28.00
2019-03-25T09:38:07.807Z,52.00
2019-03-25T09:39:07.795Z,80.00
2019-03-25T09:40:07.801Z,100.00
2019-03-25T09:41:07.768Z,136.00
2019-03-25T09:42:07.754Z,160.00
2019-03-25T09:43:07.751Z,168.00
2019-03-25T09:44:07.730Z,188.00
2019-03-25T09:45:07.757Z,212.00
2019-03-25T09:46:07.735Z,228.00
2019-03-25T09:47:07.696Z,328.00
2019-03-25T09:48:07.683Z,340.00
2019-03-25T09:49:07.671Z,520.00
2019-03-25T09:50:07.675Z,808.00
2019-03-25T09:51:07.678Z,920.00
2019-03-25T09:52:07.640Z,880.00
2019-03-25T09:53:07.624Z,836.00
2019-03-25T09:54:07.614Z,816.00
2019-03-25T09:55:07.608Z,1000.00
2019-03-25T09:56:07.621Z,1180.00
2019-03-25T09:57:07.582Z,1176.00
2019-03-25T09:58:07.578Z,864.00
2019-03-25T09:59:07.559Z,492.00
2019-03-25T10:00:07.553Z,316.00
2019-03-25T10:01:07.565Z,220.00
2019-03-25T10:02:07.546Z,224.00
2019-03-25T10:03:07.519Z,284.00
2019-03-25T10:04:07.503Z,480.00
2019-03-25T10:05:07.489Z,1324.00
2019-03-25T10:06:07.503Z,1016.00
2019-03-25T10:07:07.483Z,640.00
2019-03-25T10:08:07.469Z,364.00
2019-03-25T10:09:07.444Z,348.00
2019-03-25T10:10:07.435Z,464.00
2019-03-25T10:11:07.470Z,520.00
2019-03-25T10:12:07.409Z,564.00
2019-03-25T10:13:07.402Z,436.00
2019-03-25T10:14:07.406Z,676.00
2019-03-25T10:15:07.386Z,2024.00
2019-03-25T10:16:07.390Z,1856.00
2019-03-25T10:17:07.360Z,1668.00
2019-03-25T10:18:07.351Z,1428.00
2019-03-25T10:19:10.034Z,1964.00
2019-03-25T10:20:07.320Z,824.00
2019-03-25T10:21:07.362Z,616.00
2019-03-25T10:22:07.297Z,468.00
2019-03-25T10:23:07.293Z,328.00
2019-03-25T10:24:07.282Z,268.00
2019-03-25T10:25:07.274Z,236.00
2019-03-25T10:26:07.259Z,196.00
2019-03-25T10:27:07.270Z,208.00
2019-03-25T10:28:07.237Z,248.00
2019-03-25T10:29:07.222Z,296.00
2019-03-25T10:30:07.224Z,1064.00
2019-03-25T10:31:07.201Z,1168.00
2019-03-25T10:32:07.333Z,1076.00
2019-03-25T10:33:07.189Z,1020.00
2019-03-25T10:34:07.163Z,1012.00
2019-03-25T10:35:07.156Z,1048.00
2019-03-25T10:36:07.140Z,1088.00
2019-03-25T10:37:07.153Z,1116.00
2019-03-25T10:38:18.874Z,1184.00
2019-03-25T10:39:08.120Z,1200.00
2019-03-25T10:40:07.096Z,1304.00
2019-03-25T10:41:07.090Z,1512.00
2019-03-25T10:42:07.109Z,1296.00
2019-03-25T10:43:07.077Z,1108.00
2019-03-25T10:44:07.052Z,696.00
2019-03-25T10:45:07.047Z,452.00
2019-03-25T10:46:07.028Z,388.00
2019-03-25T10:47:07.088Z,524.00
2019-03-25T10:48:07.015Z,412.00
2019-03-25T10:49:07.006Z,1356.00
2019-03-25T10:50:06.992Z,1108.00
2019-03-25T10:51:06.991Z,636.00
2019-03-25T10:52:06.964Z,480.00
2019-03-25T10:53:06.976Z,372.00
2019-03-25T10:54:06.952Z,324.00
2019-03-25T10:55:07.891Z,332.00
2019-03-25T10:56:06.919Z,668.00
2019-03-25T10:57:06.904Z,1408.00
2019-03-25T10:58:06.928Z,1600.00
2019-03-25T10:59:06.886Z,1244.00
2019-03-25T11:00:06.873Z,1284.00
2019-03-25T11:01:06.865Z,1292.00
2019-03-25T11:02:06.850Z,1176.00
2019-03-25T11:03:06.837Z,1148.00
2019-03-25T11:04:06.847Z,1128.00
2019-03-25T11:05:06.812Z,1288.00
2019-03-25T11:06:06.805Z,1156.00
2019-03-25T11:07:06.857Z,1112.00
2019-03-25T11:08:06.784Z,1196.00
2019-03-25T11:09:06.791Z,1280.00
2019-03-25T11:10:06.756Z,1280.00
2019-03-25T11:11:06.758Z,1444.00
2019-03-25T11:12:06.734Z,1148.00
2019-03-25T11:13:06.740Z,1256.00
2019-03-25T11:14:06.742Z,880.00
2019-03-25T11:15:06.703Z,656.00
2019-03-25T11:16:06.694Z,456.00
2019-03-25T11:17:06.687Z,300.00
2019-03-25T11:18:06.666Z,268.00
2019-03-25T11:19:06.657Z,268.00
2019-03-25T11:20:06.670Z,272.00
2019-03-25T11:21:06.634Z,356.00
2019-03-25T11:22:06.622Z,368.00
2019-03-25T11:23:06.612Z,228.00
2019-03-25T11:24:06.636Z,156.00
2019-03-25T11:25:06.595Z,132.00
2019-03-25T11:26:06.584Z,112.00
2019-03-25T11:27:06.564Z,84.00
2019-03-25T11:28:06.554Z,60.00
2019-03-25T11:29:08.502Z,52.00
2019-03-25T11:30:06.538Z,48.00
2019-03-25T11:31:06.523Z,52.00
2019-03-25T11:32:06.515Z,56.00
2019-03-25T11:33:06.498Z,52.00
2019-03-25T11:34:06.539Z,56.00
2019-03-25T11:35:06.543Z,60.00
2019-03-25T11:36:06.466Z,72.00
2019-03-25T11:37:06.452Z,76.00
2019-03-25T11:38:06.445Z,88.00
2019-03-25T11:39:06.430Z,92.00
2019-03-25T11:40:06.458Z,100.00
2019-03-25T11:41:06.430Z,120.00
2019-03-25T11:42:06.422Z,136.00
2019-03-25T11:43:06.406Z,156.00
2019-03-25T11:44:06.382Z,172.00
2019-03-25T11:45:06.408Z,200.00
2019-03-25T11:46:06.360Z,224.00
2019-03-25T11:47:06.364Z,248.00
2019-03-25T11:48:06.330Z,280.00
2019-03-25T11:49:06.322Z,328.00
2019-03-25T11:50:06.330Z,432.00
2019-03-25T11:51:06.340Z,564.00
2019-03-25T11:52:06.290Z,840.00
2019-03-25T11:53:06.275Z,1296.00
2019-03-25T11:54:06.279Z,1516.00
2019-03-25T11:55:06.297Z,1548.00
2019-03-25T11:56:06.267Z,1452.00
2019-03-25T11:57:06.230Z,1348.00
2019-03-25T11:58:06.220Z,1260.00
2019-03-25T11:59:06.212Z,1176.00
2019-03-25T12:00:06.234Z,1132.00
2019-03-25T12:01:06.185Z,1092.00
2019-03-25T12:02:06.175Z,1072.00
2019-03-25T12:03:06.167Z,1056.00
2019-03-25T12:04:06.149Z,1040.00
2019-03-25T12:05:06.134Z,1028.00
2019-03-25T12:06:06.162Z,1020.00
2019-03-25T12:07:06.133Z,1028.00
2019-03-25T12:08:06.115Z,1020.00
2019-03-25T12:09:06.098Z,1000.00
2019-03-25T12:10:06.082Z,984.00
2019-03-25T12:11:06.102Z,984.00
2019-03-25T12:12:06.060Z,976.00
2019-03-25T12:13:06.051Z,968.00
2019-03-25T12:14:06.039Z,968.00
2019-03-25T12:15:06.033Z,976.00
2019-03-25T12:16:06.044Z,972.00
2019-03-25T12:17:06.007Z,976.00
2019-03-25T12:18:05.994Z,968.00
2019-03-25T12:19:05.979Z,968.00
2019-03-25T12:20:05.973Z,956.00
2019-03-25T12:21:05.997Z,964.00
2019-03-25T12:22:05.954Z,968.00
2019-03-25T12:23:05.939Z,996.00
2019-03-25T12:24:05.929Z,1068.00
2019-03-25T12:25:05.941Z,884.00
2019-03-25T12:26:05.954Z,1132.00
2019-03-25T12:27:05.889Z,1248.00
2019-03-25T12:28:05.898Z,1048.00
2019-03-25T12:29:05.875Z,1432.00
2019-03-25T12:30:05.873Z,1416.00
2019-03-25T12:31:05.881Z,1404.00
2019-03-25T12:32:05.834Z,1000.00
2019-03-25T12:33:05.825Z,1280.00
2019-03-25T12:34:05.860Z,1004.00
2019-03-25T12:35:05.806Z,1320.00
2019-03-25T12:36:05.878Z,1020.00
2019-03-25T12:37:05.806Z,948.00
2019-03-25T12:38:05.767Z,848.00
2019-03-25T12:39:05.759Z,732.00
2019-03-25T12:40:07.875Z,680.00
2019-03-25T12:41:05.766Z,564.00
2019-03-25T12:42:05.749Z,440.00
2019-03-25T12:43:05.728Z,312.00
2019-03-25T12:44:05.781Z,264.00
2019-03-25T12:46:06.816Z,176.00
2019-03-25T12:47:05.694Z,176.00
2019-03-25T12:48:05.674Z,164.00
2019-03-25T12:49:05.660Z,144.00
2019-03-25T12:50:05.633Z,144.00
2019-03-25T12:51:05.628Z,140.00